Kimitetsu Maru — JG5053 — position and weather

sailwx.info

Track history (hours):
 
Tides and Currents Weather Stations Pressure Air Temp Water Temp Dewpoint Dewpoint Depression Visibility Wind Speed Wind Dir Waves Ship Positions

Kimitetsu Maru

Last reported at 2017-Dec-11 01:58 UTC. Time now 2017-Dec-11 02:19 UTC.
Position N 35°22' E 139°52'.

Length 149 m; draft 8.6 m.

Type: Cargo ship. MMSI: 431100332.

Date/timePositionNaut miles runAvg speedWind from/ knotsBaromVisibWave heightAir tempDewpointWater temp
2017-Dec-11 01:58N 35°22' E 139°52'0 0.0
2017-Dec-11 01:25N 35°22' E 139°52'0 0.0
2017-Dec-11 00:58N 35°22' E 139°52'0 0.0
2017-Dec-11 00:28N 35°22' E 139°52'0 1.0
2017-Dec-11 00:00N 35°22' E 139°51'2 4.3
2017-Dec-10 23:27N 35°24' E 139°50'0 0.2
2017-Dec-10 23:00N 35°24' E 139°50'0 0.0
2017-Dec-10 22:30N 35°24' E 139°50'0 0.0
2017-Dec-10 22:00N 35°24' E 139°50'0 0.0
2017-Dec-10 21:30N 35°24' E 139°50'0 0.2
2017-Dec-10 21:00N 35°24' E 139°50'3 6.2
2017-Dec-10 20:30N 35°23' E 139°46'510.7
2017-Dec-10 20:00N 35°18' E 139°45'510.8
2017-Dec-10 19:30N 35°12' E 139°47'611.9
2017-Dec-10 19:00N 35°07' E 139°45'612.2
2017-Dec-10 18:30N 35°02' E 139°41'713.2
2017-Dec-10 18:01N 34°58' E 139°34'814.4
2017-Dec-10 17:28N 34°54' E 139°26'1014.2
2017-Dec-10 16:46N 34°48' E 139°17'413.9
2017-Dec-10 16:29N 34°45' E 139°13'613.5
2017-Dec-10 16:00N 34°40' E 139°08'712.9
2017-Dec-10 15:28N 34°35' E 139°02'613.2
2017-Dec-10 14:59N 34°31' E 138°56'1913.6
2017-Dec-10 13:35N 34°27' E 138°34'213.8
2017-Dec-10 13:27N 34°26' E 138°31'613.7
2017-Dec-10 13:00N 34°25' E 138°24'160 3.5
2017-Dec-08 15:12N 33°28' E 135°24'7312.2
2017-Dec-08 09:15N 33°58' E 136°44'5313.5
2017-Dec-08 05:20N 34°22' E 137°40'1811.8
2017-Dec-08 03:48N 34°25' E 138°02'511.9
2017-Dec-08 03:25N 34°26' E 138°08'812.1
2017-Dec-08 02:48N 34°27' E 138°17'411.9
2017-Dec-08 02:29N 34°27' E 138°21'611.7
2017-Dec-08 01:58N 34°28' E 138°28'511.4
2017-Dec-08 01:30N 34°29' E 138°35'611.2
2017-Dec-08 00:58N 34°30' E 138°42'611.2
2017-Dec-08 00:26N 34°31' E 138°49'511.8
2017-Dec-08 00:00N 34°32' E 138°55'612.7
2017-Dec-07 23:31N 34°36' E 139°01'713.2
2017-Dec-07 23:00N 34°41' E 139°06'713.0
2017-Dec-07 22:28N 34°47' E 139°11'612.3
2017-Dec-07 22:01N 34°51' E 139°16'510.8
2017-Dec-07 21:30N 34°55' E 139°21'510.1
2017-Dec-07 21:00N 34°57' E 139°26'510.1
2017-Dec-07 20:30N 34°60' E 139°32'611.1
2017-Dec-07 20:00N 35°03' E 139°37'713.5
2017-Dec-07 19:31N 35°06' E 139°44'713.4
2017-Dec-07 19:00N 35°13' E 139°46'612.4
2017-Dec-07 18:30N 35°19' E 139°43'611.5
2017-Dec-07 18:00N 35°24' E 139°43'510.0
2017-Dec-07 17:30N 35°24' E 139°49'3 5.0
2017-Dec-07 17:00N 35°22' E 139°52'0 0.0
2017-Dec-07 16:28N 35°22' E 139°52'0 0.0
2017-Dec-07 15:58N 35°22' E 139°52'0 0.0
2017-Dec-07 15:28N 35°22' E 139°52'0 0.0
2017-Dec-07 14:58N 35°22' E 139°52'0 0.0
2017-Dec-07 14:28N 35°22' E 139°52'0 0.0
2017-Dec-07 13:58N 35°22' E 139°52'0 0.0
2017-Dec-07 13:28N 35°22' E 139°52'0 0.0
2017-Dec-07 12:58N 35°22' E 139°52'0 0.0
2017-Dec-07 12:28N 35°22' E 139°52'0 0.0
2017-Dec-07 11:58N 35°22' E 139°52'0 0.0
2017-Dec-07 11:25N 35°22' E 139°52'0 0.0
2017-Dec-07 10:58N 35°22' E 139°52'0 0.0
2017-Dec-07 10:28N 35°22' E 139°52'0 0.0
2017-Dec-07 09:58N 35°22' E 139°52'0 0.0
2017-Dec-07 09:28N 35°22' E 139°52'0 0.0
2017-Dec-07 08:58N 35°22' E 139°52'0 0.0
2017-Dec-07 08:28N 35°22' E 139°52'0 0.0
2017-Dec-07 07:58N 35°22' E 139°52'0 0.0
2017-Dec-07 07:28N 35°22' E 139°52'0 0.0
2017-Dec-07 06:58N 35°22' E 139°52'0 0.0
2017-Dec-07 06:28N 35°22' E 139°52'0 0.0
2017-Dec-07 05:58N 35°22' E 139°52'0 0.0
2017-Dec-07 05:28N 35°22' E 139°52'0 0.0
2017-Dec-07 04:55N 35°22' E 139°52'0 0.0
2017-Dec-07 04:28N 35°22' E 139°52'0 0.0
2017-Dec-07 03:58N 35°22' E 139°52'0 0.0
2017-Dec-07 03:28N 35°22' E 139°52'0 0.0
2017-Dec-07 02:58N 35°22' E 139°52'0 0.0
2017-Dec-07 02:28N 35°22' E 139°52'0 0.0
2017-Dec-07 01:58N 35°22' E 139°52'0 0.0
2017-Dec-07 01:28N 35°22' E 139°52'0 0.0
2017-Dec-07 00:58N 35°22' E 139°52'0 0.0
2017-Dec-07 00:28N 35°22' E 139°52'0 0.0
2017-Dec-06 23:58N 35°22' E 139°52'0 0.0
2017-Dec-06 23:28N 35°22' E 139°52'0 0.0
2017-Dec-06 22:58N 35°22' E 139°52'0 0.0
2017-Dec-06 22:25N 35°22' E 139°52'0 0.0
2017-Dec-06 21:58N 35°22' E 139°52'0 0.0
2017-Dec-06 21:28N 35°22' E 139°52'0 0.0
2017-Dec-06 20:58N 35°22' E 139°52'  
2017-Dec-04 10:22N 35°22' E 139°52'0 0.0
2017-Dec-04 09:58N 35°22' E 139°52'0 0.0
2017-Dec-04 09:28N 35°22' E 139°52'0 0.0
2017-Dec-04 08:58N 35°22' E 139°52'0 0.0
2017-Dec-04 08:28N 35°22' E 139°52'0 0.0
2017-Dec-04 07:58N 35°22' E 139°52'0 0.0
2017-Dec-04 07:28N 35°22' E 139°52'0 0.0
2017-Dec-04 06:58N 35°22' E 139°52'0 0.0
2017-Dec-04 06:25N 35°22' E 139°52'0 0.0
2017-Dec-04 05:58N 35°22' E 139°52'0 0.0
2017-Dec-04 05:28N 35°22' E 139°52'0 0.0
2017-Dec-04 04:58N 35°22' E 139°52'0 0.0
2017-Dec-04 04:28N 35°22' E 139°52'0 0.1
2017-Dec-04 04:00N 35°22' E 139°52'2 3.7
2017-Dec-04 03:31N 35°23' E 139°50'4 7.2
2017-Dec-04 03:01N 35°22' E 139°46'5 9.3
2017-Dec-04 02:31N 35°18' E 139°45'611.3
2017-Dec-04 02:00N 35°12' E 139°47'611.8
2017-Dec-04 01:30N 35°06' E 139°45'611.5
2017-Dec-04 01:00N 35°02' E 139°40'612.4
2017-Dec-04 00:30N 34°58' E 139°35'713.5
2017-Dec-04 00:00N 34°55' E 139°27'913.1
2017-Dec-03 23:18N 34°49' E 139°19'413.5
2017-Dec-03 23:00N 34°46' E 139°16'713.5
2017-Dec-03 22:30N 34°41' E 139°09'813.3
2017-Dec-03 21:54N 34°36' E 139°03'511.8
2017-Dec-03 21:30N 34°33' E 138°58'611.8
2017-Dec-03 21:00N 34°30' E 138°52'612.1
2017-Dec-03 20:29N 34°29' E 138°44'812.4
2017-Dec-03 19:48N 34°27' E 138°34'412.4
2017-Dec-03 19:28N 34°26' E 138°29'612.2
2017-Dec-03 19:00N 34°24' E 138°23'612.4
2017-Dec-03 18:30N 34°23' E 138°15'812.3
2017-Dec-03 17:53N 34°22' E 138°06'1012.2
2017-Dec-03 17:05N 34°20' E 137°55'212.4
2017-Dec-03 16:57N 34°20' E 137°53'611.9
2017-Dec-03 16:25N 34°18' E 137°45'56 1.2
2017-Dec-01 15:28N 33°57' E 136°42'6212.4
2017-Dec-01 10:27N 34°24' E 137°51'511.3
2017-Dec-01 10:00N 34°24' E 137°57'611.4
2017-Dec-01 09:29N 34°25' E 138°04'511.3
2017-Dec-01 09:00N 34°26' E 138°10'611.0
2017-Dec-01 08:29N 34°27' E 138°17'510.6
2017-Dec-01 08:00N 34°28' E 138°23'510.4
2017-Dec-01 07:29N 34°29' E 138°30'5 9.7
2017-Dec-01 07:00N 34°29' E 138°35'510.1
2017-Dec-01 06:30N 34°30' E 138°41'510.3
2017-Dec-01 06:00N 34°31' E 138°48'510.6
2017-Dec-01 05:30N 34°32' E 138°54'510.5
2017-Dec-01 05:00N 34°34' E 138°60'612.8
2017-Dec-01 04:31N 34°39' E 139°04'713.2
2017-Dec-01 03:59N 34°45' E 139°09'612.8
2017-Dec-01 03:30N 34°50' E 139°14'712.2
2017-Dec-01 02:59N 34°54' E 139°20'511.7
2017-Dec-01 02:30N 34°57' E 139°25'611.4
2017-Dec-01 02:00N 34°60' E 139°31'  
Track history (hours):
 
Tides and Currents Weather Stations Pressure Air Temp Water Temp Dewpoint Dewpoint Depression Visibility Wind Speed Wind Dir Waves Ship Positions

Kimitetsu Maru

Last reported at 2017-Dec-11 01:58 UTC. Time now 2017-Dec-11 02:19 UTC.
Position N 35°22' E 139°52'.

Length 149 m; draft 8.6 m.

Type: Cargo ship. MMSI: 431100332.

Date/timePositionNaut miles runAvg speedWind from/ knotsBaromVisibWave heightAir tempDewpointWater temp
2017-Dec-11 01:58N 35°22' E 139°52'0 0.0
2017-Dec-11 01:25N 35°22' E 139°52'0 0.0
2017-Dec-11 00:58N 35°22' E 139°52'0 0.0
2017-Dec-11 00:28N 35°22' E 139°52'0 1.0
2017-Dec-11 00:00N 35°22' E 139°51'2 4.3
2017-Dec-10 23:27N 35°24' E 139°50'0 0.2
2017-Dec-10 23:00N 35°24' E 139°50'0 0.0
2017-Dec-10 22:30N 35°24' E 139°50'0 0.0
2017-Dec-10 22:00N 35°24' E 139°50'0 0.0
2017-Dec-10 21:30N 35°24' E 139°50'0 0.2
2017-Dec-10 21:00N 35°24' E 139°50'3 6.2
2017-Dec-10 20:30N 35°23' E 139°46'510.7
2017-Dec-10 20:00N 35°18' E 139°45'510.8
2017-Dec-10 19:30N 35°12' E 139°47'611.9
2017-Dec-10 19:00N 35°07' E 139°45'612.2
2017-Dec-10 18:30N 35°02' E 139°41'713.2
2017-Dec-10 18:01N 34°58' E 139°34'814.4
2017-Dec-10 17:28N 34°54' E 139°26'1014.2
2017-Dec-10 16:46N 34°48' E 139°17'413.9
2017-Dec-10 16:29N 34°45' E 139°13'613.5
2017-Dec-10 16:00N 34°40' E 139°08'712.9
2017-Dec-10 15:28N 34°35' E 139°02'613.2
2017-Dec-10 14:59N 34°31' E 138°56'1913.6
2017-Dec-10 13:35N 34°27' E 138°34'213.8
2017-Dec-10 13:27N 34°26' E 138°31'613.7
2017-Dec-10 13:00N 34°25' E 138°24'160 3.5
2017-Dec-08 15:12N 33°28' E 135°24'7312.2
2017-Dec-08 09:15N 33°58' E 136°44'5313.5
2017-Dec-08 05:20N 34°22' E 137°40'1811.8
2017-Dec-08 03:48N 34°25' E 138°02'511.9
2017-Dec-08 03:25N 34°26' E 138°08'812.1
2017-Dec-08 02:48N 34°27' E 138°17'411.9
2017-Dec-08 02:29N 34°27' E 138°21'611.7
2017-Dec-08 01:58N 34°28' E 138°28'511.4
2017-Dec-08 01:30N 34°29' E 138°35'611.2
2017-Dec-08 00:58N 34°30' E 138°42'611.2
2017-Dec-08 00:26N 34°31' E 138°49'511.8
2017-Dec-08 00:00N 34°32' E 138°55'612.7
2017-Dec-07 23:31N 34°36' E 139°01'713.2
2017-Dec-07 23:00N 34°41' E 139°06'713.0
2017-Dec-07 22:28N 34°47' E 139°11'612.3
2017-Dec-07 22:01N 34°51' E 139°16'510.8
2017-Dec-07 21:30N 34°55' E 139°21'510.1
2017-Dec-07 21:00N 34°57' E 139°26'510.1
2017-Dec-07 20:30N 34°60' E 139°32'611.1
2017-Dec-07 20:00N 35°03' E 139°37'713.5
2017-Dec-07 19:31N 35°06' E 139°44'713.4
2017-Dec-07 19:00N 35°13' E 139°46'612.4
2017-Dec-07 18:30N 35°19' E 139°43'611.5
2017-Dec-07 18:00N 35°24' E 139°43'510.0
2017-Dec-07 17:30N 35°24' E 139°49'3 5.0
2017-Dec-07 17:00N 35°22' E 139°52'0 0.0
2017-Dec-07 16:28N 35°22' E 139°52'0 0.0
2017-Dec-07 15:58N 35°22' E 139°52'0 0.0
2017-Dec-07 15:28N 35°22' E 139°52'0 0.0
2017-Dec-07 14:58N 35°22' E 139°52'0 0.0
2017-Dec-07 14:28N 35°22' E 139°52'0 0.0
2017-Dec-07 13:58N 35°22' E 139°52'0 0.0
2017-Dec-07 13:28N 35°22' E 139°52'0 0.0
2017-Dec-07 12:58N 35°22' E 139°52'0 0.0
2017-Dec-07 12:28N 35°22' E 139°52'0 0.0
2017-Dec-07 11:58N 35°22' E 139°52'0 0.0
2017-Dec-07 11:25N 35°22' E 139°52'0 0.0
2017-Dec-07 10:58N 35°22' E 139°52'0 0.0
2017-Dec-07 10:28N 35°22' E 139°52'0 0.0
2017-Dec-07 09:58N 35°22' E 139°52'0 0.0
2017-Dec-07 09:28N 35°22' E 139°52'0 0.0
2017-Dec-07 08:58N 35°22' E 139°52'0 0.0
2017-Dec-07 08:28N 35°22' E 139°52'0 0.0
2017-Dec-07 07:58N 35°22' E 139°52'0 0.0
2017-Dec-07 07:28N 35°22' E 139°52'0 0.0
2017-Dec-07 06:58N 35°22' E 139°52'0 0.0
2017-Dec-07 06:28N 35°22' E 139°52'0 0.0
2017-Dec-07 05:58N 35°22' E 139°52'0 0.0
2017-Dec-07 05:28N 35°22' E 139°52'0 0.0
2017-Dec-07 04:55N 35°22' E 139°52'0 0.0
2017-Dec-07 04:28N 35°22' E 139°52'0 0.0
2017-Dec-07 03:58N 35°22' E 139°52'0 0.0
2017-Dec-07 03:28N 35°22' E 139°52'0 0.0
2017-Dec-07 02:58N 35°22' E 139°52'0 0.0
2017-Dec-07 02:28N 35°22' E 139°52'0 0.0
2017-Dec-07 01:58N 35°22' E 139°52'0 0.0
2017-Dec-07 01:28N 35°22' E 139°52'0 0.0
2017-Dec-07 00:58N 35°22' E 139°52'0 0.0
2017-Dec-07 00:28N 35°22' E 139°52'0 0.0
2017-Dec-06 23:58N 35°22' E 139°52'0 0.0
2017-Dec-06 23:28N 35°22' E 139°52'0 0.0
2017-Dec-06 22:58N 35°22' E 139°52'0 0.0
2017-Dec-06 22:25N 35°22' E 139°52'0 0.0
2017-Dec-06 21:58N 35°22' E 139°52'0 0.0
2017-Dec-06 21:28N 35°22' E 139°52'0 0.0
2017-Dec-06 20:58N 35°22' E 139°52'  
2017-Dec-04 10:22N 35°22' E 139°52'0 0.0
2017-Dec-04 09:58N 35°22' E 139°52'0 0.0
2017-Dec-04 09:28N 35°22' E 139°52'0 0.0
2017-Dec-04 08:58N 35°22' E 139°52'0 0.0
2017-Dec-04 08:28N 35°22' E 139°52'0 0.0
2017-Dec-04 07:58N 35°22' E 139°52'0 0.0
2017-Dec-04 07:28N 35°22' E 139°52'0 0.0
2017-Dec-04 06:58N 35°22' E 139°52'0 0.0
2017-Dec-04 06:25N 35°22' E 139°52'0 0.0
2017-Dec-04 05:58N 35°22' E 139°52'0 0.0
2017-Dec-04 05:28N 35°22' E 139°52'0 0.0
2017-Dec-04 04:58N 35°22' E 139°52'0 0.0
2017-Dec-04 04:28N 35°22' E 139°52'0 0.1
2017-Dec-04 04:00N 35°22' E 139°52'2 3.7
2017-Dec-04 03:31N 35°23' E 139°50'4 7.2
2017-Dec-04 03:01N 35°22' E 139°46'5 9.3
2017-Dec-04 02:31N 35°18' E 139°45'611.3
2017-Dec-04 02:00N 35°12' E 139°47'611.8
2017-Dec-04 01:30N 35°06' E 139°45'611.5
2017-Dec-04 01:00N 35°02' E 139°40'612.4
2017-Dec-04 00:30N 34°58' E 139°35'713.5
2017-Dec-04 00:00N 34°55' E 139°27'913.1
2017-Dec-03 23:18N 34°49' E 139°19'413.5
2017-Dec-03 23:00N 34°46' E 139°16'713.5
2017-Dec-03 22:30N 34°41' E 139°09'813.3
2017-Dec-03 21:54N 34°36' E 139°03'511.8
2017-Dec-03 21:30N 34°33' E 138°58'611.8
2017-Dec-03 21:00N 34°30' E 138°52'612.1
2017-Dec-03 20:29N 34°29' E 138°44'812.4
2017-Dec-03 19:48N 34°27' E 138°34'412.4
2017-Dec-03 19:28N 34°26' E 138°29'612.2
2017-Dec-03 19:00N 34°24' E 138°23'612.4
2017-Dec-03 18:30N 34°23' E 138°15'812.3
2017-Dec-03 17:53N 34°22' E 138°06'1012.2
2017-Dec-03 17:05N 34°20' E 137°55'212.4
2017-Dec-03 16:57N 34°20' E 137°53'611.9
2017-Dec-03 16:25N 34°18' E 137°45'56 1.2
2017-Dec-01 15:28N 33°57' E 136°42'6212.4
2017-Dec-01 10:27N 34°24' E 137°51'511.3
2017-Dec-01 10:00N 34°24' E 137°57'611.4
2017-Dec-01 09:29N 34°25' E 138°04'511.3
2017-Dec-01 09:00N 34°26' E 138°10'611.0
2017-Dec-01 08:29N 34°27' E 138°17'510.6
2017-Dec-01 08:00N 34°28' E 138°23'510.4
2017-Dec-01 07:29N 34°29' E 138°30'5 9.7
2017-Dec-01 07:00N 34°29' E 138°35'510.1
2017-Dec-01 06:30N 34°30' E 138°41'510.3
2017-Dec-01 06:00N 34°31' E 138°48'510.6
2017-Dec-01 05:30N 34°32' E 138°54'510.5
2017-Dec-01 05:00N 34°34' E 138°60'612.8
2017-Dec-01 04:31N 34°39' E 139°04'713.2
2017-Dec-01 03:59N 34°45' E 139°09'612.8
2017-Dec-01 03:30N 34°50' E 139°14'712.2
2017-Dec-01 02:59N 34°54' E 139°20'511.7
2017-Dec-01 02:30N 34°57' E 139°25'611.4
2017-Dec-01 02:00N 34°60' E 139°31'  

Dump ship's entire track history